DAL0818 KJFK-KBOS
Flight info
| Callsign | DAL0818 |
|---|---|
| Flight time | 0h 41m |
| Altitude | 21000 |
| Route | MERIT ROBUC3 |
| Aircraft | B738/M-SDE2E3FGHIRWXY/LB1 |
Departure
| Time | 2026-05-04 23:26 |
|---|---|
| Airport | John F. Kennedy International Airport (KJFK) |
Arrival
| Time | 2026-05-05 00:08 |
|---|---|
| Airport | Boston Logan International Airport (KBOS) |
| Time | Latitude | Longitude | Altitude | Speed | Heading |
|---|---|---|---|---|---|
| 2026-05-04 23:01 | 40.64634 | -73.77398 | 16 ft | 0 kts | 189° |
| 2026-05-04 23:15 | 40.64635 | -73.77398 | 16 ft | 0 kts | 189° |
| 2026-05-04 23:15 | 40.64641 | -73.77396 | 16 ft | 2 kts | 189° |
| 2026-05-04 23:15 | 40.64656 | -73.77393 | 16 ft | 2 kts | 189° |
| 2026-05-04 23:16 | 40.64671 | -73.77389 | 16 ft | 2 kts | 189° |
| 2026-05-04 23:16 | 40.64687 | -73.77387 | 16 ft | 2 kts | 189° |
| 2026-05-04 23:16 | 40.64702 | -73.77383 | 16 ft | 2 kts | 189° |
| 2026-05-04 23:16 | 40.64715 | -73.77379 | 16 ft | 1 kts | 231° |
| 2026-05-04 23:17 | 40.64718 | -73.77363 | 16 ft | 1 kts | 290° |
| 2026-05-04 23:17 | 40.64714 | -73.77356 | 16 ft | 1 kts | 303° |
| 2026-05-04 23:17 | 40.64713 | -73.77353 | 16 ft | 0 kts | 301° |
| 2026-05-04 23:20 | 40.64716 | -73.77359 | 16 ft | 3 kts | 301° |
| 2026-05-04 23:20 | 40.64756 | -73.77373 | 16 ft | 10 kts | 18° |
| 2026-05-04 23:21 | 40.64768 | -73.77280 | 16 ft | 14 kts | 118° |
| 2026-05-04 23:21 | 40.64712 | -73.77161 | 16 ft | 15 kts | 125° |
| 2026-05-04 23:21 | 40.64629 | -73.77092 | 16 ft | 13 kts | 174° |
| 2026-05-04 23:21 | 40.64577 | -73.77057 | 16 ft | 7 kts | 98° |
| 2026-05-04 23:22 | 40.64576 | -73.76985 | 16 ft | 8 kts | 88° |
| 2026-05-04 23:22 | 40.64613 | -73.76910 | 16 ft | 11 kts | 33° |
| 2026-05-04 23:22 | 40.64694 | -73.76844 | 16 ft | 14 kts | 31° |
| 2026-05-04 23:22 | 40.64790 | -73.76769 | 16 ft | 16 kts | 31° |
| 2026-05-04 23:23 | 40.64894 | -73.76685 | 16 ft | 17 kts | 31° |
| 2026-05-04 23:23 | 40.65007 | -73.76598 | 16 ft | 18 kts | 30° |
| 2026-05-04 23:23 | 40.65098 | -73.76511 | 16 ft | 12 kts | 72° |
| 2026-05-04 23:23 | 40.65092 | -73.76460 | 16 ft | 0 kts | 116° |
| 2026-05-04 23:25 | 40.65087 | -73.76447 | 16 ft | 5 kts | 116° |
| 2026-05-04 23:25 | 40.65053 | -73.76376 | 16 ft | 11 kts | 140° |
| 2026-05-04 23:25 | 40.64952 | -73.76410 | 16 ft | 26 kts | 211° |
| 2026-05-04 23:26 | 40.64545 | -73.76727 | 16 ft | 104 kts | 210° |
| 2026-05-04 23:26 | 40.63684 | -73.77397 | 36 ft | 169 kts | 208° |
| 2026-05-04 23:26 | 40.62566 | -73.78310 | 444 ft | 186 kts | 208° |
| 2026-05-04 23:26 | 40.61368 | -73.79256 | 935 ft | 207 kts | 208° |
| 2026-05-04 23:27 | 40.60095 | -73.80267 | 1930 ft | 212 kts | 208° |
| 2026-05-04 23:27 | 40.58667 | -73.80972 | 2549 ft | 226 kts | 182° |
| 2026-05-04 23:27 | 40.57143 | -73.80388 | 3468 ft | 236 kts | 147° |
| 2026-05-04 23:27 | 40.56102 | -73.78489 | 4269 ft | 260 kts | 111° |
| 2026-05-04 23:28 | 40.55902 | -73.76019 | 5179 ft | 275 kts | 88° |
| 2026-05-04 23:28 | 40.56638 | -73.73501 | 6024 ft | 294 kts | 54° |
| 2026-05-04 23:28 | 40.58302 | -73.71795 | 6896 ft | 303 kts | 25° |
| 2026-05-04 23:28 | 40.60336 | -73.70702 | 7825 ft | 307 kts | 22° |
| 2026-05-04 23:29 | 40.62353 | -73.69511 | 8666 ft | 312 kts | 26° |
| 2026-05-04 23:29 | 40.64372 | -73.68161 | 9526 ft | 316 kts | 28° |
| 2026-05-04 23:29 | 40.66389 | -73.66739 | 10313 ft | 323 kts | 28° |
| 2026-05-04 23:29 | 40.68473 | -73.65240 | 10529 ft | 350 kts | 28° |
| 2026-05-04 23:30 | 40.70755 | -73.63583 | 10772 ft | 374 kts | 28° |
| 2026-05-04 23:30 | 40.73147 | -73.61839 | 11319 ft | 386 kts | 28° |
| 2026-05-04 23:30 | 40.75546 | -73.60085 | 12031 ft | 392 kts | 28° |
| 2026-05-04 23:30 | 40.78003 | -73.58288 | 12764 ft | 397 kts | 28° |
| 2026-05-04 23:31 | 40.80459 | -73.56490 | 13470 ft | 402 kts | 28° |
| 2026-05-04 23:31 | 40.82965 | -73.54654 | 14175 ft | 407 kts | 28° |
| 2026-05-04 23:31 | 40.85461 | -73.52823 | 14844 ft | 412 kts | 28° |
| 2026-05-04 23:31 | 40.88003 | -73.50955 | 15510 ft | 417 kts | 28° |
| 2026-05-04 23:32 | 40.90577 | -73.49063 | 16157 ft | 422 kts | 28° |
| 2026-05-04 23:32 | 40.93201 | -73.47132 | 16795 ft | 426 kts | 28° |
| 2026-05-04 23:32 | 40.95844 | -73.45185 | 17418 ft | 431 kts | 28° |
| 2026-05-04 23:32 | 40.98521 | -73.43210 | 18008 ft | 436 kts | 28° |
| 2026-05-04 23:33 | 41.01191 | -73.41238 | 18574 ft | 441 kts | 28° |
| 2026-05-04 23:33 | 41.03955 | -73.39197 | 19136 ft | 446 kts | 28° |
| 2026-05-04 23:33 | 41.06723 | -73.37149 | 19686 ft | 451 kts | 28° |
| 2026-05-04 23:33 | 41.09544 | -73.35061 | 20228 ft | 456 kts | 29° |
| 2026-05-04 23:34 | 41.12213 | -73.32786 | 20693 ft | 460 kts | 41° |
| 2026-05-04 23:34 | 41.14439 | -73.29700 | 20905 ft | 459 kts | 58° |
| 2026-05-04 23:34 | 41.15983 | -73.25942 | 20893 ft | 452 kts | 71° |
| 2026-05-04 23:34 | 41.17155 | -73.21989 | 20891 ft | 448 kts | 74° |
| 2026-05-04 23:35 | 41.18296 | -73.18046 | 20889 ft | 447 kts | 73° |
| 2026-05-04 23:35 | 41.19452 | -73.14128 | 20891 ft | 446 kts | 73° |
| 2026-05-04 23:35 | 41.20605 | -73.10278 | 20893 ft | 444 kts | 73° |
| 2026-05-04 23:35 | 41.21794 | -73.06349 | 20893 ft | 442 kts | 73° |
| 2026-05-04 23:36 | 41.22961 | -73.02518 | 20895 ft | 440 kts | 73° |
| 2026-05-04 23:36 | 41.24117 | -72.98748 | 20897 ft | 438 kts | 73° |
| 2026-05-04 23:36 | 41.25274 | -72.94981 | 20899 ft | 436 kts | 73° |
| 2026-05-04 23:36 | 41.26419 | -72.91254 | 20899 ft | 436 kts | 73° |
| 2026-05-04 23:37 | 41.27584 | -72.87464 | 20899 ft | 437 kts | 73° |
| 2026-05-04 23:37 | 41.28751 | -72.83675 | 20898 ft | 437 kts | 73° |
| 2026-05-04 23:37 | 41.29929 | -72.79848 | 20898 ft | 437 kts | 73° |
| 2026-05-04 23:37 | 41.31119 | -72.75982 | 20897 ft | 437 kts | 73° |
| 2026-05-04 23:38 | 41.32283 | -72.72202 | 20897 ft | 437 kts | 73° |
| 2026-05-04 23:38 | 41.33461 | -72.68374 | 20895 ft | 434 kts | 73° |
| 2026-05-04 23:38 | 41.34608 | -72.64650 | 20902 ft | 428 kts | 73° |
| 2026-05-04 23:38 | 41.35742 | -72.60955 | 20909 ft | 430 kts | 73° |
| 2026-05-04 23:39 | 41.36884 | -72.57226 | 20913 ft | 432 kts | 73° |
| 2026-05-04 23:39 | 41.38022 | -72.53507 | 20916 ft | 432 kts | 73° |
| 2026-05-04 23:39 | 41.39173 | -72.49745 | 20922 ft | 431 kts | 73° |
| 2026-05-04 23:39 | 41.40316 | -72.46003 | 20926 ft | 431 kts | 73° |
| 2026-05-04 23:40 | 41.41452 | -72.42281 | 20926 ft | 431 kts | 73° |
| 2026-05-04 23:40 | 41.42601 | -72.38507 | 20926 ft | 430 kts | 73° |
| 2026-05-04 23:40 | 41.43760 | -72.34697 | 20927 ft | 430 kts | 73° |
| 2026-05-04 23:40 | 41.44903 | -72.30940 | 20926 ft | 429 kts | 73° |
| 2026-05-04 23:41 | 41.46050 | -72.27168 | 20925 ft | 429 kts | 73° |
| 2026-05-04 23:41 | 41.47214 | -72.23330 | 20923 ft | 429 kts | 73° |
| 2026-05-04 23:41 | 41.48376 | -72.19528 | 20922 ft | 430 kts | 73° |
| 2026-05-04 23:41 | 41.49572 | -72.15794 | 20921 ft | 431 kts | 72° |
| 2026-05-04 23:42 | 41.50800 | -72.12009 | 20919 ft | 431 kts | 72° |
| 2026-05-04 23:42 | 41.52002 | -72.08292 | 20918 ft | 431 kts | 72° |
| 2026-05-04 23:42 | 41.53220 | -72.04522 | 20916 ft | 431 kts | 72° |
| 2026-05-04 23:42 | 41.54445 | -72.00716 | 20915 ft | 432 kts | 72° |
| 2026-05-04 23:43 | 41.55651 | -71.96965 | 20915 ft | 432 kts | 72° |
| 2026-05-04 23:43 | 41.56876 | -71.93144 | 20917 ft | 432 kts | 72° |
| 2026-05-04 23:43 | 41.58085 | -71.89368 | 20920 ft | 431 kts | 72° |
| 2026-05-04 23:43 | 41.59323 | -71.85492 | 20923 ft | 431 kts | 72° |
| 2026-05-04 23:44 | 41.60531 | -71.81708 | 20927 ft | 431 kts | 72° |
| 2026-05-04 23:44 | 41.61752 | -71.77876 | 20928 ft | 430 kts | 72° |
| 2026-05-04 23:44 | 41.62956 | -71.74091 | 20928 ft | 430 kts | 72° |
| 2026-05-04 23:44 | 41.64151 | -71.70332 | 20751 ft | 422 kts | 72° |
| 2026-05-04 23:45 | 41.65316 | -71.66659 | 20172 ft | 425 kts | 72° |
| 2026-05-04 23:45 | 41.66519 | -71.62846 | 19576 ft | 425 kts | 72° |
| 2026-05-04 23:45 | 41.67686 | -71.59161 | 19049 ft | 416 kts | 72° |
| 2026-05-04 23:45 | 41.68782 | -71.55582 | 18889 ft | 390 kts | 73° |
| 2026-05-04 23:46 | 41.69764 | -71.52243 | 18906 ft | 366 kts | 74° |
| 2026-05-04 23:46 | 41.70699 | -71.49020 | 18910 ft | 361 kts | 75° |
| 2026-05-04 23:46 | 41.71639 | -71.45783 | 18911 ft | 367 kts | 74° |
| 2026-05-04 23:46 | 41.72708 | -71.42567 | 18904 ft | 371 kts | 68° |
| 2026-05-04 23:47 | 41.73969 | -71.39480 | 18677 ft | 364 kts | 65° |
| 2026-05-04 23:47 | 41.75254 | -71.36453 | 18168 ft | 366 kts | 65° |
| 2026-05-04 23:47 | 41.76524 | -71.33474 | 17685 ft | 363 kts | 66° |
| 2026-05-04 23:47 | 41.77995 | -71.30557 | 17260 ft | 364 kts | 53° |
| 2026-05-04 23:48 | 41.79951 | -71.28293 | 16882 ft | 365 kts | 33° |
| 2026-05-04 23:48 | 41.82338 | -71.26852 | 16422 ft | 364 kts | 21° |
| 2026-05-04 23:48 | 41.84748 | -71.25704 | 15946 ft | 361 kts | 20° |
| 2026-05-04 23:48 | 41.87172 | -71.24563 | 15573 ft | 357 kts | 20° |
| 2026-05-04 23:49 | 41.89567 | -71.23425 | 15170 ft | 354 kts | 20° |
| 2026-05-04 23:49 | 41.91975 | -71.22272 | 14701 ft | 353 kts | 20° |
| 2026-05-04 23:49 | 41.94350 | -71.21130 | 14300 ft | 349 kts | 20° |
| 2026-05-04 23:49 | 41.96705 | -71.19994 | 13878 ft | 348 kts | 20° |
| 2026-05-04 23:50 | 41.99066 | -71.18853 | 13498 ft | 344 kts | 20° |
| 2026-05-04 23:50 | 42.01352 | -71.17745 | 13151 ft | 339 kts | 20° |
| 2026-05-04 23:50 | 42.03633 | -71.16638 | 12814 ft | 335 kts | 20° |
| 2026-05-04 23:50 | 42.05893 | -71.15542 | 12395 ft | 334 kts | 20° |
| 2026-05-04 23:51 | 42.08146 | -71.14449 | 12009 ft | 331 kts | 20° |
| 2026-05-04 23:51 | 42.10380 | -71.13363 | 11548 ft | 330 kts | 20° |
| 2026-05-04 23:51 | 42.12592 | -71.12289 | 11182 ft | 326 kts | 20° |
| 2026-05-04 23:51 | 42.14790 | -71.11220 | 10931 ft | 321 kts | 20° |
| 2026-05-04 23:52 | 42.17007 | -71.10463 | 10637 ft | 322 kts | 3° |
| 2026-05-04 23:52 | 42.19279 | -71.10702 | 10349 ft | 315 kts | 347° |
| 2026-05-04 23:52 | 42.21498 | -71.11308 | 10094 ft | 315 kts | 346° |
| 2026-05-04 23:52 | 42.23724 | -71.11934 | 9772 ft | 314 kts | 345° |
| 2026-05-04 23:53 | 42.25897 | -71.12545 | 9411 ft | 312 kts | 346° |
| 2026-05-04 23:53 | 42.28067 | -71.13158 | 9181 ft | 307 kts | 346° |
| 2026-05-04 23:53 | 42.30206 | -71.13764 | 8889 ft | 310 kts | 345° |
| 2026-05-04 23:53 | 42.32346 | -71.14369 | 8551 ft | 299 kts | 345° |
| 2026-05-04 23:54 | 42.34417 | -71.14942 | 8296 ft | 297 kts | 346° |
| 2026-05-04 23:54 | 42.36525 | -71.15422 | 8021 ft | 300 kts | 356° |
| 2026-05-04 23:54 | 42.38581 | -71.15002 | 7709 ft | 300 kts | 21° |
| 2026-05-04 23:54 | 42.40506 | -71.13884 | 7461 ft | 297 kts | 25° |
| 2026-05-04 23:55 | 42.42419 | -71.12708 | 7136 ft | 297 kts | 26° |
| 2026-05-04 23:55 | 42.44350 | -71.11509 | 6893 ft | 297 kts | 25° |
| 2026-05-04 23:55 | 42.48096 | -71.09152 | 6293 ft | 291 kts | 25° |
| 2026-05-04 23:56 | 42.49987 | -71.07954 | 6003 ft | 293 kts | 25° |
| 2026-05-04 23:56 | 42.51905 | -71.06730 | 5671 ft | 291 kts | 25° |
| 2026-05-04 23:56 | 42.53768 | -71.05527 | 5360 ft | 287 kts | 25° |
| 2026-05-04 23:56 | 42.55605 | -71.04330 | 5009 ft | 284 kts | 25° |
| 2026-05-04 23:57 | 42.57475 | -71.03110 | 4759 ft | 282 kts | 25° |
| 2026-05-04 23:57 | 42.59269 | -71.01937 | 4539 ft | 279 kts | 25° |
| 2026-05-04 23:57 | 42.61060 | -71.00753 | 4344 ft | 279 kts | 25° |
| 2026-05-04 23:57 | 42.62833 | -70.99571 | 4139 ft | 280 kts | 25° |
| 2026-05-04 23:58 | 42.64645 | -70.98358 | 3749 ft | 277 kts | 25° |
| 2026-05-04 23:58 | 42.66433 | -70.97142 | 3351 ft | 272 kts | 25° |
| 2026-05-04 23:58 | 42.68201 | -70.95937 | 3010 ft | 267 kts | 25° |
| 2026-05-04 23:58 | 42.69814 | -70.94435 | 2988 ft | 269 kts | 46° |
| 2026-05-04 23:59 | 42.70821 | -70.92275 | 2971 ft | 251 kts | 73° |
| 2026-05-04 23:59 | 42.70952 | -70.89954 | 2986 ft | 226 kts | 108° |
| 2026-05-04 23:59 | 42.70214 | -70.88163 | 2995 ft | 196 kts | 144° |
| 2026-05-04 23:59 | 42.69037 | -70.87444 | 2993 ft | 167 kts | 173° |
| 2026-05-05 00:00 | 42.67932 | -70.87200 | 2965 ft | 150 kts | 175° |
| 2026-05-05 00:00 | 42.67246 | -70.87071 | 2996 ft | 141 kts | 181° |
| 2026-05-05 00:00 | 42.65854 | -70.87131 | 2977 ft | 146 kts | 189° |
| 2026-05-05 00:00 | 42.64830 | -70.87241 | 2977 ft | 144 kts | 187° |
| 2026-05-05 00:01 | 42.63816 | -70.87447 | 2981 ft | 144 kts | 194° |
| 2026-05-05 00:01 | 42.62825 | -70.87794 | 2980 ft | 143 kts | 198° |
| 2026-05-05 00:01 | 42.61852 | -70.88211 | 2979 ft | 142 kts | 200° |
| 2026-05-05 00:01 | 42.60900 | -70.88654 | 2980 ft | 141 kts | 201° |
| 2026-05-05 00:02 | 42.59941 | -70.89114 | 2982 ft | 141 kts | 201° |
| 2026-05-05 00:02 | 42.58984 | -70.89578 | 2984 ft | 142 kts | 201° |
| 2026-05-05 00:02 | 42.58022 | -70.90049 | 2979 ft | 141 kts | 201° |
| 2026-05-05 00:02 | 42.57062 | -70.90516 | 2982 ft | 141 kts | 201° |
| 2026-05-05 00:03 | 42.56099 | -70.90986 | 2983 ft | 142 kts | 201° |
| 2026-05-05 00:03 | 42.55150 | -70.91446 | 2978 ft | 140 kts | 201° |
| 2026-05-05 00:03 | 42.54217 | -70.91898 | 3003 ft | 135 kts | 200° |
| 2026-05-05 00:03 | 42.53299 | -70.92347 | 3016 ft | 141 kts | 201° |
| 2026-05-05 00:04 | 42.52366 | -70.92790 | 2997 ft | 135 kts | 200° |
| 2026-05-05 00:04 | 42.51438 | -70.93246 | 2983 ft | 142 kts | 200° |
| 2026-05-05 00:04 | 42.50478 | -70.93725 | 2738 ft | 141 kts | 200° |
| 2026-05-05 00:04 | 42.49550 | -70.94159 | 2573 ft | 132 kts | 195° |
| 2026-05-05 00:05 | 42.48639 | -70.94589 | 2406 ft | 136 kts | 202° |
| 2026-05-05 00:05 | 42.47746 | -70.95042 | 2198 ft | 133 kts | 198° |
| 2026-05-05 00:05 | 42.46822 | -70.95498 | 2026 ft | 137 kts | 199° |
| 2026-05-05 00:05 | 42.45915 | -70.95938 | 1814 ft | 136 kts | 199° |
| 2026-05-05 00:06 | 42.45010 | -70.96384 | 1633 ft | 135 kts | 199° |
| 2026-05-05 00:06 | 42.44126 | -70.96809 | 1447 ft | 132 kts | 200° |
| 2026-05-05 00:06 | 42.43225 | -70.97241 | 1263 ft | 136 kts | 199° |
| 2026-05-05 00:06 | 42.42313 | -70.97690 | 1074 ft | 134 kts | 198° |
| 2026-05-05 00:07 | 42.41398 | -70.98132 | 890 ft | 136 kts | 198° |
| 2026-05-05 00:07 | 42.40485 | -70.98573 | 717 ft | 136 kts | 199° |
| 2026-05-05 00:07 | 42.39574 | -70.99015 | 513 ft | 135 kts | 199° |
| 2026-05-05 00:07 | 42.38699 | -70.99463 | 301 ft | 128 kts | 198° |
| 2026-05-05 00:08 | 42.37808 | -70.99879 | 96 ft | 133 kts | 197° |
| 2026-05-05 00:08 | 42.36953 | -71.00281 | 13 ft | 109 kts | 198° |
| 2026-05-05 00:08 | 42.36443 | -71.00531 | 16 ft | 41 kts | 200° |
| 2026-05-05 00:08 | 42.36243 | -71.00629 | 16 ft | 23 kts | 201° |
| 2026-05-05 00:09 | 42.36148 | -71.00764 | 16 ft | 18 kts | 266° |
| 2026-05-05 00:09 | 42.36185 | -71.00917 | 17 ft | 13 kts | 294° |
| 2026-05-05 00:09 | 42.36198 | -71.00955 | 18 ft | 0 kts | 294° |
| 2026-05-05 00:10 | 42.36221 | -71.01024 | 19 ft | 11 kts | 294° |
| 2026-05-05 00:10 | 42.36252 | -71.01118 | 19 ft | 11 kts | 294° |
| 2026-05-05 00:10 | 42.36298 | -71.01230 | 19 ft | 8 kts | 301° |
| 2026-05-05 00:10 | 42.36304 | -71.01244 | 19 ft | 0 kts | 301° |
| 2026-05-05 00:11 | 42.36311 | -71.01260 | 19 ft | 5 kts | 300° |
| 2026-05-05 00:11 | 42.36308 | -71.01335 | 19 ft | 11 kts | 224° |
| 2026-05-05 00:11 | 42.36215 | -71.01390 | 19 ft | 16 kts | 200° |
| 2026-05-05 00:12 | 42.36085 | -71.01450 | 19 ft | 20 kts | 198° |
| 2026-05-05 00:12 | 42.35946 | -71.01518 | 20 ft | 20 kts | 200° |
| 2026-05-05 00:12 | 42.35834 | -71.01585 | 21 ft | 13 kts | 231° |
| 2026-05-05 00:12 | 42.35831 | -71.01702 | 19 ft | 12 kts | 282° |
| 2026-05-05 00:13 | 42.35849 | -71.01815 | 19 ft | 11 kts | 284° |
| 2026-05-05 00:13 | 42.35879 | -71.01912 | 19 ft | 10 kts | 298° |
| 2026-05-05 00:13 | 42.35918 | -71.02002 | 19 ft | 10 kts | 304° |
| 2026-05-05 00:13 | 42.35985 | -71.02028 | 19 ft | 11 kts | 19° |
| 2026-05-05 00:14 | 42.36037 | -71.01973 | 19 ft | 6 kts | 58° |
| 2026-05-05 00:14 | 42.36048 | -71.01944 | 19 ft | 1 kts | 66° |
| 2026-05-05 00:14 | 42.36048 | -71.01943 | 19 ft | 0 kts | 66° |